Portada
METAR-TAF:

METAR-TAF

Aeropuertos :

El Hierro, España

Aeropuerto de El Hierro

latitud: 27-49N, longitud: 017-53W, altitud: 32 m

Observación

El informe se hizo hace 17 minutos, a las 18:30 UTC
Viento 14 kt del norte, variando entre norte-noroeste y noreste
Temperatura 24°C
Humedad 78%
Presión 1022 hPa
Visibilidad 10 km o más

METAR: GCHI 171830Z AUTO 01014KT 340V050 9999 FEW016/// SCT023/// 24/20 Q1022

Hora: 19:47 (18:47 UTC)

Pronóstico

El informe se hizo hace 4 horas y 47 minutos, a las 14:00 UTC
Pronóstico válido del 17 a las 15 UTC al 18 a las 15 UTC
Viento 14 kt del norte
Visibilidad 10 km o más
Nubes dispersas a una altura de 2000 ft

TAF: GCHI 171400Z 1715/1815 36014KT 9999 SCT020 TX25/1813Z TN22/1806Z

Observaciones y pronósticos meteorológicos de más de 4000 aeropuertos (mensajes METAR y TAF).

Los puntos amarillos y rojos representan las estaciones disponibles.

Ponga el ratón en el punto deseado para ver el nombre de la estación.

Haga clic para ver las observaciones y los pronósticos meteorológicos.

Para cambiar el mapa : haga clic en los botones verdes con una cruz de color negro para hacer un zoom, en el botón verde con un guión para alejar o en las flechas verdes para mapas adyacentes.


METAR-TAF: